Time;durP1;ratioP1;P1;durP2;ratioP2;P2;SDS_P1;SDS_P2;PMS_P1;PMS_P2;Temp;Humidity;BMP_temperature;BMP_pressure;BME280_temperature;BME280_humidity;BME280_pressure;Samples;Min_cycle;Max_cycle;Signal;HPM_P1;HPM_P2
2021/11/25 00:02:06;;;;;;;28.83;24.95;;;2.60;99.90;;;;;;4153133;28;20040;-51
2021/11/25 00:04:09;;;;;;;24.85;22.52;;;2.60;99.90;;;;;;4155198;28;20033;-45
2021/11/25 00:06:13;;;;;;;24.27;22.48;;;2.60;99.90;;;;;;4150358;28;20119;-45
2021/11/25 00:08:15;;;;;;;23.33;20.98;;;2.60;99.90;;;;;;4159794;28;20038;-45
2021/11/25 00:10:18;;;;;;;19.60;18.25;;;2.60;99.90;;;;;;4157461;28;20038;-46
2021/11/25 00:12:20;;;;;;;19.77;17.75;;;2.80;99.90;;;;;;4160143;28;20442;-47
2021/11/25 00:14:22;;;;;;;21.48;19.70;;;2.80;99.90;;;;;;4151980;28;20098;-46
2021/11/25 00:16:24;;;;;;;20.00;18.45;;;2.80;99.90;;;;;;4155834;28;20137;-46
2021/11/25 00:18:27;;;;;;;18.35;16.88;;;2.80;99.90;;;;;;4152650;28;20052;-47
2021/11/25 00:20:29;;;;;;;17.80;16.58;;;2.90;99.90;;;;;;4154320;28;20065;-45
2021/11/25 00:22:31;;;;;;;17.17;15.77;;;2.90;99.90;;;;;;4152858;28;20370;-47
2021/11/25 00:24:33;;;;;;;15.98;14.55;;;3.00;99.90;;;;;;4159535;28;20547;-45
2021/11/25 00:26:36;;;;;;;17.33;15.85;;;3.00;99.90;;;;;;4160294;28;20037;-46
2021/11/25 00:28:38;;;;;;;16.02;14.77;;;3.00;99.90;;;;;;4159266;28;20072;-45
2021/11/25 00:30:40;;;;;;;16.10;14.65;;;3.00;99.90;;;;;;4147877;28;20038;-46
2021/11/25 00:32:43;;;;;;;15.00;13.68;;;3.00;99.90;;;;;;4160118;28;20096;-47
2021/11/25 00:34:45;;;;;;;18.05;16.40;;;3.00;99.90;;;;;;4153330;28;20575;-45
2021/11/25 00:36:48;;;;;;;26.45;23.60;;;2.90;99.90;;;;;;4155546;28;20121;-46
2021/11/25 00:38:50;;;;;;;29.00;22.50;;;2.80;99.90;;;;;;4158204;28;20065;-46
2021/11/25 00:40:52;;;;;;;25.17;22.70;;;2.70;99.90;;;;;;4159182;28;20045;-47
2021/11/25 00:42:54;;;;;;;26.55;23.98;;;2.70;99.90;;;;;;4160878;28;20045;-45
2021/11/25 00:44:56;;;;;;;26.27;23.38;;;2.50;99.90;;;;;;4157655;28;20045;-45
2021/11/25 00:46:58;;;;;;;26.70;23.92;;;2.30;99.90;;;;;;4150033;28;20076;-45
2021/11/25 00:49:00;;;;;;;24.27;22.20;;;2.30;99.90;;;;;;4159377;28;20060;-46
2021/11/25 00:51:02;;;;;;;25.13;22.70;;;2.20;99.90;;;;;;4157242;28;20309;-45
2021/11/25 00:53:04;;;;;;;22.35;20.25;;;2.00;99.90;;;;;;4159099;28;20088;-45
2021/11/25 00:55:07;;;;;;;22.95;21.02;;;2.10;99.90;;;;;;4161743;28;20073;-46
2021/11/25 00:57:09;;;;;;;24.45;22.25;;;2.30;99.90;;;;;;4159626;28;20064;-47
2021/11/25 00:59:11;;;;;;;22.83;19.75;;;2.30;99.90;;;;;;4159583;28;20060;-45
2021/11/25 01:01:14;;;;;;;22.88;20.42;;;2.40;99.90;;;;;;4157301;28;20041;-47
2021/11/25 01:03:16;;;;;;;22.85;20.73;;;2.40;99.90;;;;;;4157471;28;20041;-47
2021/11/25 01:05:20;;;;;;;26.67;21.15;;;2.30;99.90;;;;;;4157606;28;20038;-45
2021/11/25 01:07:22;;;;;;;29.08;23.15;;;2.20;99.90;;;;;;4154074;28;20038;-47
2021/11/25 01:09:24;;;;;;;34.03;22.60;;;2.10;99.90;;;;;;4156694;28;20051;-47
2021/11/25 01:11:26;;;;;;;40.38;28.95;;;2.00;99.90;;;;;;4154213;28;20486;-46
2021/11/25 01:13:28;;;;;;;42.08;30.92;;;1.90;99.90;;;;;;4152617;28;20052;-48
2021/11/25 01:15:32;;;;;;;50.47;33.70;;;1.90;99.90;;;;;;4145589;28;20053;-45
2021/11/25 01:17:39;;;;;;;47.38;33.88;;;1.80;99.90;;;;;;4157045;28;20053;-46
2021/11/25 01:19:41;;;;;;;36.15;30.38;;;1.80;99.90;;;;;;4158485;28;20402;-47
2021/11/25 01:21:43;;;;;;;31.52;28.80;;;1.90;99.90;;;;;;4157035;28;20100;-48
2021/11/25 01:23:46;;;;;;;33.63;30.73;;;1.90;99.90;;;;;;4146191;28;20096;-46
2021/11/25 01:25:49;;;;;;;38.33;34.50;;;1.90;99.90;;;;;;4157378;28;20038;-47
2021/11/25 01:27:51;;;;;;;36.03;32.70;;;1.80;99.90;;;;;;4147299;28;20502;-45
2021/11/25 01:29:53;;;;;;;36.80;33.75;;;1.70;99.90;;;;;;4156493;28;20092;-46
2021/11/25 01:31:55;;;;;;;37.50;34.10;;;1.70;99.90;;;;;;4160615;28;20041;-46
2021/11/25 01:33:57;;;;;;;37.75;34.50;;;1.70;99.90;;;;;;4158513;28;20132;-45
2021/11/25 01:35:59;;;;;;;39.47;36.67;;;1.60;99.90;;;;;;4161760;28;20128;-45
2021/11/25 01:38:02;;;;;;;37.22;33.72;;;1.70;99.90;;;;;;4159120;28;20042;-47
2021/11/25 01:40:09;;;;;;;;;;;1.70;99.90;;;;;;4158419;28;20046;-45
2021/11/25 01:42:12;;;;;;;40.17;36.47;;;1.70;99.90;;;;;;4156161;28;19963;-46
2021/11/25 01:44:16;;;;;;;34.67;32.13;;;1.70;99.90;;;;;;4158660;28;20393;-45
2021/11/25 01:46:19;;;;;;;33.90;31.25;;;1.70;99.90;;;;;;4159697;28;20037;-47
2021/11/25 01:48:23;;;;;;;33.50;30.95;;;1.70;99.90;;;;;;4151926;28;20034;-46
2021/11/25 01:50:27;;;;;;;35.70;33.03;;;1.80;99.90;;;;;;4153007;28;20137;-46
2021/11/25 01:52:29;;;;;;;33.70;31.30;;;1.80;99.90;;;;;;4148347;28;20037;-46
2021/11/25 01:54:31;;;;;;;35.50;33.05;;;1.80;99.90;;;;;;4152217;28;20046;-45
2021/11/25 01:56:33;;;;;;;30.80;28.77;;;1.80;99.90;;;;;;4161394;28;20045;-46
2021/11/25 01:58:35;;;;;;;30.90;29.40;;;2.00;99.90;;;;;;4156077;28;21238;-45
2021/11/25 02:00:46;;;;;;;30.77;28.88;;;2.00;99.90;;;;;;4154832;28;20477;-51
2021/11/25 02:02:49;;;;;;;33.13;30.80;;;2.10;99.90;;;;;;4152712;28;20120;-49
2021/11/25 02:04:51;;;;;;;30.27;28.38;;;2.20;99.90;;;;;;4159121;28;20129;-50
2021/11/25 02:06:53;;;;;;;29.85;28.27;;;2.20;99.90;;;;;;4157193;28;20037;-48
2021/11/25 02:08:55;;;;;;;28.40;26.52;;;2.20;99.90;;;;;;4155372;28;20038;-48
2021/11/25 02:10:59;;;;;;;30.40;28.52;;;2.30;99.90;;;;;;4154193;28;20052;-49
2021/11/25 02:13:01;;;;;;;27.42;25.63;;;2.30;99.90;;;;;;4159491;28;20056;-52
2021/11/25 02:15:03;;;;;;;26.70;24.30;;;2.40;99.90;;;;;;4157626;28;20096;-54
2021/11/25 02:17:05;;;;;;;21.08;19.17;;;2.40;99.90;;;;;;4157208;28;20766;-54
2021/11/25 02:19:09;;;;;;;23.23;21.52;;;2.40;99.90;;;;;;4150450;28;20712;-52
2021/11/25 02:21:11;;;;;;;24.00;22.17;;;2.40;99.90;;;;;;4162977;28;20037;-54
2021/11/25 02:23:14;;;;;;;23.85;20.15;;;2.40;99.90;;;;;;4151677;28;20045;-52
2021/11/25 02:25:16;;;;;;;19.25;17.95;;;2.40;99.90;;;;;;4163611;28;20063;-51
2021/11/25 02:27:20;;;;;;;24.38;22.48;;;2.40;99.90;;;;;;4160227;28;20065;-52
2021/11/25 02:29:22;;;;;;;30.95;28.75;;;2.20;99.90;;;;;;4162576;28;20633;-52
2021/11/25 02:31:24;;;;;;;33.50;30.92;;;2.00;99.90;;;;;;4157711;28;20042;-53
2021/11/25 02:33:26;;;;;;;35.08;32.47;;;2.00;99.90;;;;;;4163128;28;20055;-52
2021/11/25 02:35:34;;;;;;;31.10;26.55;;;2.00;99.90;;;;;;4152843;28;20084;-53
2021/11/25 02:37:36;;;;;;;20.95;19.35;;;2.10;99.90;;;;;;4161878;28;20049;-52
2021/11/25 02:39:38;;;;;;;19.42;17.88;;;2.30;99.90;;;;;;4160921;28;20118;-51
2021/11/25 02:41:41;;;;;;;20.60;18.67;;;2.50;99.90;;;;;;4161867;28;20045;-51
2021/11/25 02:43:43;;;;;;;23.52;21.58;;;2.60;99.90;;;;;;4157731;28;20050;-53
2021/11/25 02:45:59;;;;;;;23.10;21.20;;;2.60;99.90;;;;;;4163165;28;20124;-55
2021/11/25 02:48:01;;;;;;;32.92;30.42;;;2.50;99.90;;;;;;4157449;28;20091;-53
2021/11/25 02:50:04;;;;;;;34.95;32.65;;;2.40;99.90;;;;;;4162264;28;20523;-52
2021/11/25 02:52:07;;;;;;;37.92;35.20;;;2.30;99.90;;;;;;4161723;28;20128;-53
2021/11/25 02:54:09;;;;;;;38.65;35.70;;;2.20;99.90;;;;;;4161604;28;20593;-54
2021/11/25 02:56:14;;;;;;;36.03;33.33;;;2.20;99.90;;;;;;4161533;28;20061;-52
2021/11/25 02:58:18;;;;;;;36.25;33.78;;;2.10;99.90;;;;;;4158523;28;20144;-51
2021/11/25 03:00:20;;;;;;;37.67;35.10;;;2.10;99.90;;;;;;4151179;28;20385;-53
2021/11/25 03:02:22;;;;;;;38.50;36.10;;;2.10;99.90;;;;;;4161989;28;20037;-53
2021/11/25 03:04:24;;;;;;;37.00;34.38;;;2.10;99.90;;;;;;4150439;28;20034;-50
2021/11/25 03:06:27;;;;;;;35.22;32.65;;;2.20;99.90;;;;;;4159773;28;20219;-51
2021/11/25 03:08:29;;;;;;;33.88;31.45;;;2.30;99.90;;;;;;4161453;28;20072;-51
2021/11/25 03:10:40;;;;;;;30.88;29.05;;;2.50;99.90;;;;;;4161624;28;20124;-54
2021/11/25 03:12:42;;;;;;;25.80;24.30;;;2.60;99.90;;;;;;4159504;28;20553;-52
2021/11/25 03:14:44;;;;;;;23.77;21.98;;;2.70;99.90;;;;;;4160513;28;20045;-52
2021/11/25 03:16:46;;;;;;;27.42;24.85;;;2.70;99.90;;;;;;4150653;28;20736;-49
2021/11/25 03:18:49;;;;;;;26.60;24.58;;;2.80;99.90;;;;;;4159449;28;20455;-51
2021/11/25 03:20:53;;;;;;;23.20;21.08;;;2.70;99.90;;;;;;4161785;28;20053;-54
2021/11/25 03:22:55;;;;;;;23.30;21.73;;;2.70;99.90;;;;;;4159345;28;20064;-53
2021/11/25 03:24:57;;;;;;;22.27;20.75;;;2.70;99.90;;;;;;4162402;28;20108;-54
2021/11/25 03:26:59;;;;;;;23.88;22.15;;;2.70;99.90;;;;;;4157263;28;20177;-53
2021/11/25 03:29:02;;;;;;;27.92;26.02;;;2.70;99.90;;;;;;4159795;28;20066;-53
2021/11/25 03:31:04;;;;;;;29.83;27.75;;;2.70;99.90;;;;;;4160250;28;20065;-52
2021/11/25 03:33:08;;;;;;;29.67;28.10;;;2.80;99.90;;;;;;4163753;28;20073;-53
2021/11/25 03:35:10;;;;;;;30.63;28.83;;;2.80;99.90;;;;;;4159321;28;20132;-52
2021/11/25 03:37:13;;;;;;;29.80;28.15;;;2.90;99.90;;;;;;4161346;28;20041;-52
2021/11/25 03:39:15;;;;;;;28.23;27.02;;;3.00;99.90;;;;;;4158495;28;20806;-53
2021/11/25 03:41:19;;;;;;;28.48;27.05;;;3.00;99.90;;;;;;4151894;28;20512;-53
2021/11/25 03:43:21;;;;;;;28.73;26.73;;;3.00;99.90;;;;;;4159633;28;20041;-53
2021/11/25 03:45:24;;;;;;;23.58;21.80;;;3.00;99.90;;;;;;4148084;28;20073;-56
2021/11/25 03:47:26;;;;;;;21.05;20.10;;;3.00;99.90;;;;;;4159536;28;20041;-54
2021/11/25 03:49:28;;;;;;;24.90;23.33;;;2.90;99.90;;;;;;4160155;28;20116;-56
2021/11/25 03:51:30;;;;;;;25.15;23.52;;;3.00;99.90;;;;;;4158025;28;20091;-55
2021/11/25 03:53:37;;;;;;;24.75;23.25;;;3.00;99.90;;;;;;4153039;28;20045;-54
2021/11/25 03:55:39;;;;;;;23.00;21.52;;;3.10;99.90;;;;;;4157868;28;20084;-55
2021/11/25 03:57:42;;;;;;;24.75;23.45;;;3.20;99.90;;;;;;4151078;28;20429;-53
2021/11/25 03:59:44;;;;;;;21.40;20.50;;;3.20;99.90;;;;;;4156760;28;20055;-53
2021/11/25 04:01:46;;;;;;;23.13;21.98;;;3.20;99.90;;;;;;4155588;28;20052;-54
2021/11/25 04:03:49;;;;;;;19.48;18.48;;;3.30;99.90;;;;;;4158281;28;20072;-54
2021/11/25 04:05:51;;;;;;;21.58;20.65;;;3.40;99.90;;;;;;4161267;28;20164;-53
2021/11/25 04:07:54;;;;;;;;;;;3.50;99.90;;;;;;4159830;28;20052;-54
2021/11/25 04:09:56;;;;;;;15.82;14.77;;;3.60;99.90;;;;;;4162826;28;20530;-53
2021/11/25 04:11:58;;;;;;;18.58;16.67;;;3.70;99.90;;;;;;4156432;28;20033;-54
2021/11/25 04:14:03;;;;;;;27.02;25.38;;;3.50;99.90;;;;;;4156410;28;20088;-54
2021/11/25 04:16:06;;;;;;;27.10;25.55;;;3.40;99.90;;;;;;4158452;28;20065;-52
2021/11/25 04:18:08;;;;;;;28.02;26.30;;;3.40;99.90;;;;;;4160343;28;20485;-53
2021/11/25 04:20:12;;;;;;;29.75;27.92;;;3.30;99.90;;;;;;4158880;28;20088;-52
2021/11/25 04:22:14;;;;;;;28.23;26.33;;;3.30;99.90;;;;;;4150305;28;20065;-53
2021/11/25 04:24:16;;;;;;;29.35;27.20;;;3.30;99.90;;;;;;4154466;28;20040;-52
2021/11/25 04:26:18;;;;;;;30.15;28.35;;;3.30;99.90;;;;;;4158465;28;20042;-52
2021/11/25 04:28:20;;;;;;;29.30;27.77;;;3.20;99.90;;;;;;4157363;28;20042;-53
2021/11/25 04:30:26;;;;;;;29.15;27.63;;;3.10;99.90;;;;;;4158424;28;20696;-53
2021/11/25 04:37:09;;;;;;;28.48;26.95;;;3.10;99.90;;;;;;4157561;28;20049;-53
2021/11/25 04:39:13;;;;;;;26.70;25.40;;;3.10;99.90;;;;;;4152831;28;20042;-50
2021/11/25 04:41:15;;;;;;;28.25;26.63;;;3.20;99.90;;;;;;4157437;28;20427;-52
2021/11/25 04:43:18;;;;;;;31.75;29.70;;;3.20;99.90;;;;;;4160731;28;20520;-53
2021/11/25 04:45:20;;;;;;;30.35;28.70;;;3.20;99.90;;;;;;4158165;28;20076;-54
2021/11/25 04:47:22;;;;;;;30.33;28.60;;;3.20;99.90;;;;;;4162186;28;20125;-55
2021/11/25 04:49:25;;;;;;;29.30;27.50;;;3.20;99.90;;;;;;4156999;28;20037;-54
2021/11/25 04:51:27;;;;;;;31.17;28.95;;;3.20;99.90;;;;;;4159894;28;20060;-55
2021/11/25 04:53:29;;;;;;;29.45;27.60;;;3.20;99.90;;;;;;4149263;28;20064;-54
2021/11/25 04:55:31;;;;;;;25.80;24.40;;;3.30;99.90;;;;;;4152958;28;20065;-54
2021/11/25 04:57:33;;;;;;;26.08;24.65;;;3.30;99.90;;;;;;4157566;28;20084;-53
2021/11/25 04:59:35;;;;;;;27.55;26.17;;;3.20;99.90;;;;;;4159190;28;20041;-54
2021/11/25 05:01:38;;;;;;;26.63;25.00;;;3.30;99.90;;;;;;4158140;28;20564;-54
2021/11/25 05:03:40;;;;;;;13.88;13.25;;;3.40;99.90;;;;;;4161757;28;20060;-53
2021/11/25 05:05:42;;;;;;;12.63;12.07;;;3.40;99.90;;;;;;4156341;28;20624;-53
2021/11/25 05:07:44;;;;;;;18.00;16.95;;;3.50;99.90;;;;;;4161489;28;20588;-54
2021/11/25 05:09:47;;;;;;;17.25;16.30;;;3.50;99.90;;;;;;4158033;28;20045;-54
2021/11/25 05:11:49;;;;;;;16.40;15.50;;;3.60;99.90;;;;;;4161515;28;20489;-53
2021/11/25 05:13:51;;;;;;;19.40;18.42;;;3.60;99.90;;;;;;4157773;28;20068;-53
2021/11/25 05:15:53;;;;;;;17.02;16.40;;;3.70;99.90;;;;;;4161218;28;20362;-54
2021/11/25 05:17:56;;;;;;;13.98;13.35;;;3.80;99.90;;;;;;4158827;28;20446;-55
2021/11/25 05:19:57;;;;;;;10.60;10.07;;;3.80;99.90;;;;;;4158082;28;20073;-54
2021/11/25 05:22:00;;;;;;;11.70;10.90;;;3.90;99.90;;;;;;4157959;28;20065;-53
2021/11/25 05:24:02;;;;;;;15.38;14.60;;;3.90;99.90;;;;;;4159727;28;20042;-53
2021/11/25 05:26:04;;;;;;;11.80;11.30;;;3.90;99.90;;;;;;4161115;28;20500;-52
2021/11/25 05:28:11;;;;;;;15.45;14.85;;;4.00;99.90;;;;;;4159104;28;20074;-54
2021/11/25 05:30:15;;;;;;;13.07;12.68;;;4.00;99.90;;;;;;4158854;28;20057;-55
2021/11/25 05:32:17;;;;;;;10.48;9.98;;;4.20;99.90;;;;;;4166470;28;20564;-54
2021/11/25 05:34:19;;;;;;;8.98;8.68;;;4.20;99.90;;;;;;4164928;28;20041;-55
2021/11/25 05:36:21;;;;;;;9.55;8.98;;;4.30;99.90;;;;;;4158648;28;21123;-55
2021/11/25 05:38:23;;;;;;;8.07;7.78;;;4.30;99.90;;;;;;4156823;28;20120;-53
2021/11/25 05:40:25;;;;;;;9.15;8.77;;;4.30;99.90;;;;;;4157363;28;20065;-54
2021/11/25 05:42:27;;;;;;;9.18;8.82;;;4.40;99.90;;;;;;4160339;28;20076;-54
2021/11/25 05:44:30;;;;;;;8.85;8.60;;;4.40;99.90;;;;;;4159672;28;20544;-52
2021/11/25 05:46:32;;;;;;;9.30;8.73;;;4.40;99.90;;;;;;4160819;28;20140;-56
2021/11/25 05:48:34;;;;;;;8.45;8.13;;;4.40;99.90;;;;;;4161577;28;20069;-55
2021/11/25 05:50:36;;;;;;;9.43;9.05;;;4.30;99.90;;;;;;4159200;28;20641;-53
2021/11/25 05:52:39;;;;;;;9.35;8.85;;;4.40;99.90;;;;;;4160726;28;20045;-56
2021/11/25 05:54:41;;;;;;;11.55;10.35;;;4.40;99.90;;;;;;4160189;28;20083;-56
2021/11/25 05:56:43;;;;;;;9.70;9.20;;;4.40;99.90;;;;;;4163639;28;20080;-55
2021/11/25 05:58:45;;;;;;;9.65;9.05;;;4.30;99.90;;;;;;4162500;28;20041;-55
2021/11/25 06:00:48;;;;;;;9.98;8.82;;;4.40;99.90;;;;;;4163530;28;20075;-56
2021/11/25 06:02:50;;;;;;;7.45;7.20;;;4.40;99.90;;;;;;4161737;28;20050;-57
2021/11/25 06:04:52;;;;;;;8.90;8.35;;;4.40;99.90;;;;;;4164290;28;20061;-55
2021/11/25 06:06:54;;;;;;;9.05;8.50;;;4.50;99.90;;;;;;4161671;28;20065;-57
2021/11/25 06:08:56;;;;;;;9.38;8.95;;;4.50;99.90;;;;;;4157526;28;20193;-56
2021/11/25 06:11:02;;;;;;;9.00;8.45;;;4.60;99.90;;;;;;4162734;28;20485;-56
2021/11/25 06:13:04;;;;;;;9.43;8.77;;;4.70;99.90;;;;;;4157247;28;20046;-55
2021/11/25 06:15:07;;;;;;;7.10;6.90;;;4.60;99.90;;;;;;4154115;28;20034;-56
2021/11/25 06:17:09;;;;;;;8.82;8.32;;;4.60;99.90;;;;;;4164227;28;20049;-56
2021/11/25 06:19:11;;;;;;;8.95;8.45;;;4.70;99.90;;;;;;4161886;28;20045;-55
2021/11/25 06:21:13;;;;;;;9.63;8.82;;;4.80;99.90;;;;;;4159979;28;20138;-53
2021/11/25 06:23:16;;;;;;;12.20;11.23;;;4.70;99.90;;;;;;4160282;28;20060;-53
2021/11/25 06:25:20;;;;;;;18.38;13.20;;;4.70;99.90;;;;;;4162567;28;20091;-54
2021/11/25 06:27:23;;;;;;;55.15;15.75;;;4.70;99.90;;;;;;4162710;28;20069;-54
2021/11/25 06:29:25;;;;;;;17.15;15.70;;;4.60;99.90;;;;;;4164025;28;20485;-53
2021/11/25 06:31:27;;;;;;;15.75;14.57;;;4.60;99.90;;;;;;4162027;28;20084;-52
2021/11/25 06:33:29;;;;;;;16.20;15.00;;;4.50;99.90;;;;;;4162892;28;20797;-53
2021/11/25 06:35:34;;;;;;;20.70;18.60;;;4.50;99.90;;;;;;4160914;28;20091;-53
2021/11/25 06:37:44;;;;;;;18.83;17.00;;;4.50;99.90;;;;;;4163513;28;20505;-53
2021/11/25 06:39:46;;;;;;;139.30;29.40;;;4.50;99.90;;;;;;4160227;28;20061;-50
2021/11/25 06:41:48;;;;;;;93.50;27.58;;;4.50;99.90;;;;;;4163883;28;20073;-53
2021/11/25 06:43:50;;;;;;;129.77;29.95;;;4.50;99.90;;;;;;4160664;28;20484;-52
2021/11/25 06:45:52;;;;;;;269.13;41.72;;;4.50;99.90;;;;;;4164012;28;20371;-53
2021/11/25 06:47:55;;;;;;;203.55;35.75;;;4.40;99.90;;;;;;4160950;28;20066;-51
2021/11/25 06:49:58;;;;;;;39.40;24.90;;;4.40;99.90;;;;;;4162036;28;20046;-51
2021/11/25 06:52:00;;;;;;;20.30;19.05;;;4.40;99.90;;;;;;4158283;28;20529;-52
2021/11/25 06:54:02;;;;;;;24.25;21.63;;;4.40;99.90;;;;;;4162738;28;20124;-52
2021/11/25 06:56:04;;;;;;;21.98;20.65;;;4.40;99.90;;;;;;4156458;28;20138;-51
2021/11/25 06:58:06;;;;;;;17.73;16.65;;;4.40;99.90;;;;;;4150317;28;20065;-49
2021/11/25 07:00:13;;;;;;;18.75;17.30;;;4.40;99.90;;;;;;4155839;28;20041;-50
2021/11/25 07:02:16;;;;;;;20.10;18.35;;;4.50;99.90;;;;;;4164251;28;20045;-52
2021/11/25 07:04:18;;;;;;;19.55;18.25;;;4.50;99.90;;;;;;4160130;28;20033;-49
2021/11/25 07:06:20;;;;;;;14.68;13.93;;;4.50;99.90;;;;;;4148221;28;20042;-53
2021/11/25 07:08:22;;;;;;;14.75;14.05;;;4.50;99.90;;;;;;4160769;28;20061;-52
2021/11/25 07:10:25;;;;;;;16.90;15.98;;;4.60;99.90;;;;;;4163724;28;20037;-52
2021/11/25 07:12:27;;;;;;;15.75;14.80;;;4.60;99.90;;;;;;4161521;28;20037;-52
2021/11/25 07:14:30;;;;;;;13.63;12.80;;;4.60;99.90;;;;;;4163531;28;20045;-52
2021/11/25 07:16:32;;;;;;;12.38;11.68;;;4.60;99.90;;;;;;4160922;28;20045;-52
2021/11/25 07:18:34;;;;;;;10.30;9.93;;;4.60;99.90;;;;;;4163267;28;20048;-52
2021/11/25 07:20:36;;;;;;;11.23;10.40;;;4.70;99.90;;;;;;4159939;28;20144;-51
2021/11/25 07:22:39;;;;;;;9.77;9.43;;;4.70;99.90;;;;;;4163221;28;20124;-51
2021/11/25 07:24:41;;;;;;;10.68;9.93;;;4.80;99.90;;;;;;4161678;28;20041;-51
2021/11/25 07:26:43;;;;;;;9.68;9.23;;;4.90;99.90;;;;;;4163399;28;20073;-52
2021/11/25 07:28:45;;;;;;;10.18;9.25;;;5.10;99.90;;;;;;4161173;28;20121;-51
2021/11/25 07:30:48;;;;;;;8.90;8.70;;;5.10;99.90;;;;;;4161770;28;20045;-52
2021/11/25 07:32:50;;;;;;;11.35;10.30;;;5.20;99.90;;;;;;4161367;28;20121;-53
2021/11/25 07:34:53;;;;;;;10.88;10.27;;;5.30;99.90;;;;;;4162478;28;20673;-52
2021/11/25 07:36:55;;;;;;;11.18;10.40;;;5.30;99.90;;;;;;4160699;28;20128;-49
2021/11/25 07:39:03;;;;;;;10.30;9.50;;;5.40;99.90;;;;;;4163035;28;20037;-52
2021/11/25 07:41:05;;;;;;;9.20;8.38;;;5.40;99.90;;;;;;4160755;28;20072;-51
2021/11/25 07:43:07;;;;;;;11.13;10.25;;;5.40;99.90;;;;;;4163085;28;20420;-52
2021/11/25 07:45:10;;;;;;;10.10;9.40;;;5.40;99.90;;;;;;4160737;28;20065;-53
2021/11/25 07:47:12;;;;;;;12.30;11.35;;;5.50;99.90;;;;;;4147786;28;20042;-54
2021/11/25 07:49:14;;;;;;;12.45;11.35;;;5.50;99.90;;;;;;4161254;28;20140;-53
2021/11/25 07:51:16;;;;;;;14.80;13.15;;;5.50;99.90;;;;;;4159955;28;20038;-53
2021/11/25 07:53:18;;;;;;;16.00;14.38;;;5.40;99.90;;;;;;4162620;28;20346;-53
2021/11/25 07:55:21;;;;;;;14.40;13.20;;;5.40;99.90;;;;;;4161236;28;20065;-52
2021/11/25 07:57:23;;;;;;;13.55;12.18;;;5.40;99.90;;;;;;4161220;28;20091;-53
2021/11/25 07:59:26;;;;;;;12.88;11.10;;;5.40;99.90;;;;;;4161207;28;20512;-53
2021/11/25 08:01:28;;;;;;;11.82;11.05;;;5.40;99.90;;;;;;4161134;28;20064;-52
2021/11/25 08:03:30;;;;;;;16.23;14.25;;;5.40;99.90;;;;;;4161079;28;20055;-51
2021/11/25 08:05:32;;;;;;;14.05;13.00;;;5.50;99.90;;;;;;4160588;28;20069;-51
2021/11/25 08:07:35;;;;;;;14.48;13.38;;;5.50;99.90;;;;;;4161067;28;20091;-52
2021/11/25 08:09:37;;;;;;;13.63;12.50;;;5.50;99.90;;;;;;4159131;28;20041;-52
2021/11/25 08:11:41;;;;;;;12.68;11.60;;;5.60;99.90;;;;;;4160282;28;20099;-54
2021/11/25 08:13:43;;;;;;;12.23;11.45;;;5.60;99.90;;;;;;4161268;28;20041;-54
2021/11/25 08:15:45;;;;;;;14.65;13.48;;;5.70;99.90;;;;;;4159932;28;20084;-54
2021/11/25 08:17:47;;;;;;;27.33;16.25;;;5.70;99.90;;;;;;4161310;28;20038;-53
2021/11/25 08:19:50;;;;;;;;;;;5.80;99.90;;;;;;4151015;28;20041;-54
2021/11/25 08:21:52;;;;;;;10.18;9.57;;;5.80;99.90;;;;;;4162292;28;19927;-54
2021/11/25 08:23:54;;;;;;;11.15;10.50;;;5.70;99.90;;;;;;4159700;28;20092;-53
2021/11/25 08:25:56;;;;;;;14.93;13.77;;;5.70;99.90;;;;;;4161429;28;20076;-53
2021/11/25 08:28:00;;;;;;;14.13;13.10;;;5.80;99.90;;;;;;4159174;28;20069;-52
2021/11/25 08:30:05;;;;;;;11.07;10.27;;;5.80;99.90;;;;;;4161952;28;20068;-53
2021/11/25 08:32:08;;;;;;;11.60;10.55;;;5.80;99.90;;;;;;4158915;28;20072;-52
2021/11/25 08:34:10;;;;;;;10.52;9.93;;;5.90;99.90;;;;;;4161400;28;20069;-52
2021/11/25 08:36:13;;;;;;;11.52;10.38;;;5.90;99.90;;;;;;4159320;28;20042;-52
2021/11/25 08:38:15;;;;;;;12.80;11.82;;;6.00;99.90;;;;;;4162129;28;20057;-53
2021/11/25 08:40:18;;;;;;;11.63;10.45;;;6.00;99.90;;;;;;4160070;28;20033;-52
2021/11/25 08:42:20;;;;;;;13.63;12.55;;;6.00;99.90;;;;;;4162072;28;20167;-53
2021/11/25 08:44:22;;;;;;;14.60;13.38;;;6.00;99.90;;;;;;4159272;28;20509;-53
2021/11/25 08:46:24;;;;;;;15.45;14.40;;;6.10;99.90;;;;;;4159759;28;20619;-52
2021/11/25 08:48:26;;;;;;;23.15;20.52;;;6.10;99.90;;;;;;4160177;28;20401;-51
2021/11/25 08:50:30;;;;;;;30.27;22.15;;;6.10;99.90;;;;;;4161857;28;20041;-52
2021/11/25 08:52:32;;;;;;;36.22;24.30;;;6.10;99.90;;;;;;4159811;28;20064;-52
2021/11/25 08:54:34;;;;;;;53.97;36.40;;;6.10;99.90;;;;;;4161950;28;20067;-52
2021/11/25 08:56:36;;;;;;;52.13;38.92;;;6.10;99.90;;;;;;4152846;28;20120;-53
2021/11/25 08:58:38;;;;;;;50.40;30.00;;;6.10;99.90;;;;;;4153084;28;20050;-52
2021/11/25 09:00:40;;;;;;;44.53;29.67;;;6.10;99.90;;;;;;4154041;28;20091;-52
2021/11/25 09:02:43;;;;;;;95.53;36.83;;;6.10;99.90;;;;;;4162175;28;20040;-52
2021/11/25 09:04:46;;;;;;;350.45;57.53;;;6.20;99.90;;;;;;4158580;28;20038;-52
2021/11/25 09:06:48;;;;;;;225.80;49.15;;;6.10;99.90;;;;;;4160578;28;20052;-52
2021/11/25 09:08:50;;;;;;;163.35;44.40;;;6.10;99.90;;;;;;4158632;28;20042;-52
2021/11/25 09:10:52;;;;;;;98.35;33.78;;;6.10;99.90;;;;;;4160817;28;20470;-53
2021/11/25 09:12:54;;;;;;;30.77;23.00;;;6.10;99.90;;;;;;4158716;28;20128;-53
2021/11/25 09:15:00;;;;;;;28.13;25.15;;;6.00;99.90;;;;;;4161564;28;20041;-54
2021/11/25 09:17:02;;;;;;;25.60;20.73;;;6.10;99.90;;;;;;4157827;28;20128;-54
2021/11/25 09:19:05;;;;;;;16.08;14.55;;;6.10;99.90;;;;;;4159963;28;20437;-54
2021/11/25 09:21:07;;;;;;;12.45;11.65;;;6.10;99.90;;;;;;4159456;28;20561;-54
2021/11/25 09:23:16;;;;;;;17.08;15.27;;;6.20;99.90;;;;;;4161091;28;20050;-53
2021/11/25 09:25:18;;;;;;;17.08;15.38;;;6.20;99.90;;;;;;4157094;28;20045;-53
2021/11/25 09:27:21;;;;;;;11.48;10.88;;;6.30;99.90;;;;;;4160613;28;20053;-53
2021/11/25 09:29:23;;;;;;;11.52;10.88;;;6.40;99.90;;;;;;4159595;28;20470;-53
2021/11/25 09:31:30;;;;;;;14.38;13.38;;;6.50;99.90;;;;;;4163323;28;20390;-53
2021/11/25 09:33:33;;;;;;;16.33;14.95;;;6.50;99.90;;;;;;4160617;28;20084;-53
2021/11/25 09:35:35;;;;;;;14.07;12.68;;;6.60;99.90;;;;;;4148909;28;20037;-53
2021/11/25 09:37:37;;;;;;;15.55;14.35;;;6.70;99.90;;;;;;4162102;28;20061;-53
2021/11/25 09:39:39;;;;;;;14.27;13.07;;;6.70;99.90;;;;;;4164982;28;20037;-52
2021/11/25 09:41:41;;;;;;;15.77;14.35;;;6.80;99.90;;;;;;4161058;28;20068;-53
2021/11/25 09:43:43;;;;;;;11.85;10.95;;;6.80;99.90;;;;;;4165570;28;20045;-52
2021/11/25 09:45:49;;;;;;;12.38;11.38;;;6.80;99.90;;;;;;4161429;28;20095;-52
2021/11/25 09:47:57;;;;;;;9.77;9.38;;;6.80;99.90;;;;;;4164689;28;20050;-52
2021/11/25 09:50:02;;;;;;;10.35;9.63;;;6.90;99.90;;;;;;4161991;28;20434;-51
2021/11/25 09:52:04;;;;;;;18.35;16.80;;;6.90;99.90;;;;;;4164632;28;20046;-52
2021/11/25 09:54:07;;;;;;;24.08;20.95;;;6.90;99.90;;;;;;4163184;28;20037;-52
2021/11/25 09:56:09;;;;;;;25.40;20.70;;;7.00;99.90;;;;;;4163422;28;20406;-52
2021/11/25 09:58:12;;;;;;;;;;;7.00;99.90;;;;;;4162554;28;20033;-53
2021/11/25 10:00:14;;;;;;;;;;;6.90;99.90;;;;;;4164832;28;19929;-52
2021/11/25 10:02:16;;;;;;;29.33;22.40;;;6.90;99.90;;;;;;4162813;28;19956;-52
2021/11/25 10:04:19;;;;;;;32.83;29.50;;;7.00;99.90;;;;;;4163369;28;20088;-50
2021/11/25 10:06:26;;;;;;;26.40;23.55;;;7.00;99.90;;;;;;4162062;28;20084;-51
2021/11/25 10:08:32;;;;;;;22.27;20.10;;;7.10;99.90;;;;;;4161893;28;20437;-53
2021/11/25 10:10:34;;;;;;;23.05;20.70;;;7.00;99.90;;;;;;4163463;28;20087;-54
2021/11/25 10:12:37;;;;;;;;;;;7.00;99.90;;;;;;4163224;28;20034;-52
2021/11/25 10:14:39;;;;;;;29.83;24.55;;;7.00;99.90;;;;;;4162937;28;20432;-53
2021/11/25 10:16:50;;;;;;;44.30;34.38;;;7.10;99.90;;;;;;4161834;28;20134;-53
2021/11/25 10:18:52;;;;;;;27.58;24.77;;;7.10;99.90;;;;;;4163114;28;20041;-53
2021/11/25 10:20:54;;;;;;;23.00;20.73;;;7.20;99.90;;;;;;4163883;28;20046;-52
2021/11/25 10:23:04;;;;;;;22.35;20.23;;;7.20;99.90;;;;;;4162152;28;20069;-52
2021/11/25 10:25:07;;;;;;;47.47;36.08;;;7.30;99.90;;;;;;4161592;28;20041;-53
2021/11/25 10:27:26;;;;;;;35.08;29.58;;;7.30;99.90;;;;;;4164032;28;20104;-52
2021/11/25 10:29:28;;;;;;;32.80;29.38;;;7.30;99.90;;;;;;4161229;28;20037;-53
2021/11/25 10:31:32;;;;;;;30.20;27.20;;;7.30;99.90;;;;;;4163845;28;20037;-52
2021/11/25 10:34:24;;;;;;;18.05;16.23;;;7.40;99.90;;;;;;4162288;28;20087;-53
2021/11/25 10:40:27;;;;;;;11.10;10.27;;;7.50;99.90;;;;;;4152458;28;20110;-53
2021/11/25 10:42:35;;;;;;;12.48;11.48;;;7.60;99.90;;;;;;4160913;28;20092;-53
2021/11/25 10:44:50;;;;;;;13.55;12.35;;;7.70;99.90;;;;;;4161734;28;20037;-53